Strona główna
METAR-TAF:

METAR-TAF

Lotnisko :

Port lotniczy Ämari

Ämari, Estonia

Szerokość geograficzna: 59-15-44N, Długość geograficzna: 24-13-07E, wysokość: 20 m

Aktualna obserwacja pogody

Raport powstał 25 minut temu, godzina 00:50 UTC
Cisza
Temperatura 6°C
Wilgotność 93%
Ciśnienie 1021 hPa
Widzialność 10 km lub więcej

METAR: EEEI 180050Z AUTO 00000KT 9999 FEW003/// 06/05 Q1021

czas: 04:15 (01:15 UTC)

Prognoza

Raport powstał 1 godzina i 45 minut temu, godzina 23:30 UTC
Prognoza ważna od 18 godzina 00 UTC do 18 godzina 24 UTC
Wiatr 2 kt z kierunków zmiennych
Widzialność 10 km lub więcej
Brak chmur poniżej 1500 m i brak chmur cumulonimbus
Przejściowo
od 18 godzina 04 UTC do 18 godzina 10 UTC
Wiatr 6 kt od wschodnio-południowy wschód
Przejściowo
od 18 godzina 14 UTC do 18 godzina 18 UTC
Wiatr 8 kt od północ

TAF: EEEI 172330Z 1800/1824 VRB02KT CAVOK TEMPO 1804/1810 11006KT TEMPO 1814/1818 36008KT

Obserwacja i prognoza pogody dla ponad 4000 lotnisk (raport METAR i TAF).

Dostępne stacje oznaczono żółtymi i czerwonymi punktami na mapie.

Najedź kursorem aby zobaczyć nazwę stacji.

Kliknij aby zobaczyć obserwacje i prognozy pogody.

Aby zmienić mapę: kliknij na zielony przycisk z czarnym krzyżykiem, aby powiększyć; na zielony przycisk z myślnikiem, aby pomniejszyć; na zielone strzałki, aby przejść do map sąsiednich.


METAR-TAF: